createdAt,value
2019-03-31T00:01:34.284Z,45.60
2019-03-31T00:04:00.280Z,41.50
2019-03-31T00:06:26.593Z,40.40
2019-03-31T00:08:52.560Z,38.23
2019-03-31T00:11:18.544Z,32.90
2019-03-31T00:13:44.771Z,32.07
2019-03-31T00:16:10.744Z,29.27
2019-03-31T00:18:36.812Z,30.30
2019-03-31T00:21:02.904Z,30.20
2019-03-31T00:23:29.423Z,30.50
2019-03-31T00:25:55.471Z,28.50
2019-03-31T00:28:21.467Z,31.43
2019-03-31T00:30:47.617Z,30.10
2019-03-31T00:33:13.953Z,28.33
2019-03-31T00:35:39.920Z,29.23
2019-03-31T00:38:05.912Z,27.03
2019-03-31T00:40:31.915Z,26.23
2019-03-31T00:42:57.895Z,24.83
2019-03-31T00:45:24.163Z,26.13
2019-03-31T00:47:50.430Z,25.53
2019-03-31T00:50:16.408Z,25.87
2019-03-31T00:52:42.429Z,23.83
2019-03-31T00:55:08.420Z,23.20
2019-03-31T00:57:34.556Z,21.33
2019-03-31T01:00:00.733Z,24.27
2019-03-31T01:02:28.725Z,21.50
2019-03-31T01:04:54.750Z,19.23
2019-03-31T01:07:24.280Z,18.77
2019-03-31T01:09:54.064Z,19.70
2019-03-31T01:12:22.475Z,20.60
2019-03-31T01:14:48.583Z,18.27
2019-03-31T01:17:18.723Z,19.40
2019-03-31T01:19:44.144Z,18.00
2019-03-31T01:22:10.276Z,15.73
2019-03-31T01:24:36.372Z,18.80
2019-03-31T01:27:04.072Z,15.60
2019-03-31T01:29:30.305Z,16.17
2019-03-31T01:31:56.683Z,18.57
2019-03-31T01:34:23.182Z,16.67
2019-03-31T01:36:49.186Z,17.03
2019-03-31T01:39:15.461Z,17.77
2019-03-31T01:41:41.441Z,17.03
2019-03-31T01:44:07.486Z,18.17
2019-03-31T01:46:33.460Z,16.30
2019-03-31T01:48:59.495Z,16.03
2019-03-31T01:51:25.725Z,16.50
2019-03-31T01:53:51.708Z,16.63
2019-03-31T01:56:17.919Z,14.90
2019-03-31T01:58:43.936Z,15.60
2019-03-31T02:01:14.664Z,15.83
2019-03-31T02:03:40.743Z,15.57
2019-03-31T02:06:06.788Z,15.10
2019-03-31T02:08:32.772Z,16.10
2019-03-31T02:14:21.817Z,15.10
2019-03-31T02:16:47.969Z,14.03
2019-03-31T02:19:14.007Z,13.77
2019-03-31T02:21:40.000Z,13.90
2019-03-31T02:24:06.263Z,14.20
2019-03-31T02:26:32.237Z,13.20
2019-03-31T02:28:58.225Z,13.17
2019-03-31T02:31:24.241Z,11.90
2019-03-31T02:33:50.225Z,13.27
2019-03-31T02:36:16.251Z,13.93
2019-03-31T02:38:42.336Z,12.50
2019-03-31T02:41:08.370Z,10.80
2019-03-31T02:43:34.350Z,11.00
2019-03-31T02:46:00.364Z,11.00
2019-03-31T02:48:26.399Z,10.33
2019-03-31T02:50:52.400Z,10.30
2019-03-31T02:53:19.504Z,11.37
2019-03-31T02:55:45.802Z,9.83
2019-03-31T02:58:13.582Z,10.63
2019-03-31T03:00:40.401Z,9.63
2019-03-31T03:03:06.485Z,11.07
2019-03-31T03:05:32.686Z,10.30
2019-03-31T03:07:59.879Z,11.90
2019-03-31T03:10:26.618Z,12.03
2019-03-31T03:12:55.636Z,11.87
2019-03-31T03:15:26.225Z,14.10
2019-03-31T03:17:52.258Z,12.90
2019-03-31T03:20:18.261Z,11.97
2019-03-31T03:22:44.392Z,10.73
2019-03-31T03:25:10.501Z,12.53
2019-03-31T03:27:36.590Z,12.30
2019-03-31T03:30:03.054Z,13.27
2019-03-31T03:32:29.136Z,12.50
2019-03-31T03:34:55.625Z,12.80
2019-03-31T03:37:21.726Z,14.37
2019-03-31T03:39:47.713Z,13.53
2019-03-31T03:42:13.828Z,17.10
2019-03-31T03:44:39.926Z,16.20
2019-03-31T03:47:08.162Z,15.77
2019-03-31T03:49:36.165Z,14.10
2019-03-31T03:52:02.390Z,15.50
2019-03-31T03:54:28.531Z,14.20
2019-03-31T03:56:54.885Z,14.33
2019-03-31T03:59:21.433Z,12.30
2019-03-31T04:01:47.580Z,12.20
2019-03-31T04:04:13.771Z,12.07
2019-03-31T04:06:39.931Z,11.00
2019-03-31T04:09:06.131Z,9.60
2019-03-31T04:11:32.353Z,10.90
2019-03-31T04:13:58.360Z,10.37
2019-03-31T04:16:24.844Z,9.73
2019-03-31T04:18:51.073Z,8.87
2019-03-31T04:21:17.074Z,8.37
2019-03-31T04:23:43.172Z,8.17
2019-03-31T04:26:09.269Z,7.90
2019-03-31T04:28:35.288Z,8.27
2019-03-31T04:31:01.294Z,7.10
2019-03-31T04:33:27.269Z,6.80
2019-03-31T04:35:53.393Z,5.87
2019-03-31T04:38:19.389Z,6.27
2019-03-31T04:40:45.422Z,5.47
2019-03-31T04:43:11.497Z,5.10
2019-03-31T04:45:37.522Z,4.30
2019-03-31T04:48:03.523Z,3.90
2019-03-31T04:50:29.764Z,2.57
2019-03-31T04:52:55.746Z,2.37
2019-03-31T04:55:21.724Z,2.33
2019-03-31T04:57:47.784Z,2.07
2019-03-31T05:00:13.859Z,2.27
2019-03-31T05:02:39.895Z,2.30
2019-03-31T05:05:05.967Z,1.77
2019-03-31T05:07:31.948Z,2.00
2019-03-31T05:09:57.985Z,2.23
2019-03-31T05:12:23.962Z,1.50
2019-03-31T05:14:49.987Z,2.13
2019-03-31T05:17:15.975Z,1.90
2019-03-31T05:19:41.976Z,1.73
2019-03-31T05:22:07.955Z,2.00
2019-03-31T05:24:33.996Z,1.80
2019-03-31T05:26:59.992Z,1.50
2019-03-31T05:29:25.970Z,2.17
2019-03-31T05:31:52.021Z,2.50
2019-03-31T05:34:19.262Z,2.30
2019-03-31T05:36:45.591Z,2.00
2019-03-31T05:39:11.639Z,2.97
2019-03-31T05:41:37.637Z,2.40
2019-03-31T05:44:05.996Z,2.30
2019-03-31T05:46:31.733Z,2.17
2019-03-31T05:48:57.710Z,2.80
2019-03-31T05:51:23.692Z,2.30
2019-03-31T05:53:49.744Z,1.90
2019-03-31T05:56:15.752Z,2.50
2019-03-31T05:58:41.759Z,2.77
2019-03-31T06:01:07.742Z,3.33
2019-03-31T06:03:33.749Z,2.83
2019-03-31T06:05:59.733Z,3.00
2019-03-31T06:08:25.706Z,3.20
2019-03-31T06:10:51.727Z,3.47
2019-03-31T06:13:17.720Z,3.13
2019-03-31T06:15:43.833Z,3.50
2019-03-31T06:18:09.810Z,2.90
2019-03-31T06:20:35.833Z,2.90
2019-03-31T06:23:01.813Z,3.00
2019-03-31T06:25:27.832Z,2.40
2019-03-31T06:27:53.857Z,3.77
2019-03-31T06:30:20.015Z,2.73
2019-03-31T06:32:45.996Z,2.63
2019-03-31T06:35:12.026Z,2.90
2019-03-31T06:37:38.048Z,2.70
2019-03-31T06:40:04.259Z,2.60
2019-03-31T06:42:30.264Z,3.03
2019-03-31T06:44:56.293Z,2.63
2019-03-31T06:47:22.280Z,3.23
2019-03-31T06:49:48.265Z,3.10
2019-03-31T06:52:14.312Z,3.50
2019-03-31T06:54:40.569Z,2.60
2019-03-31T06:57:06.543Z,4.00
2019-03-31T06:59:32.524Z,4.00
2019-03-31T07:01:58.552Z,3.33
2019-03-31T07:04:24.539Z,3.77
2019-03-31T07:06:50.561Z,3.23
2019-03-31T07:09:16.559Z,3.60
2019-03-31T07:11:42.544Z,3.00
2019-03-31T07:14:08.595Z,3.53
2019-03-31T07:16:34.620Z,3.20
2019-03-31T07:19:00.614Z,3.40
2019-03-31T07:21:26.638Z,3.00
2019-03-31T07:23:52.608Z,3.40
2019-03-31T07:26:18.852Z,2.77
2019-03-31T07:28:44.843Z,3.80
2019-03-31T07:31:10.866Z,3.40
2019-03-31T07:33:37.395Z,2.73
2019-03-31T07:36:03.466Z,3.30
2019-03-31T07:38:38.767Z,3.37
2019-03-31T07:41:11.677Z,2.30
2019-03-31T07:43:25.612Z,3.27
2019-03-31T07:45:51.606Z,3.10
2019-03-31T07:48:17.738Z,3.03
2019-03-31T07:50:43.913Z,3.53
2019-03-31T07:53:09.995Z,3.90
2019-03-31T07:55:36.037Z,2.93
2019-03-31T07:58:02.235Z,3.30
2019-03-31T08:00:28.403Z,2.53
2019-03-31T08:02:54.490Z,5.13
2019-03-31T08:05:32.507Z,2.30
2019-03-31T08:07:48.496Z,2.97
2019-03-31T08:10:15.032Z,3.40
2019-03-31T08:12:41.305Z,2.90
2019-03-31T08:15:08.120Z,3.93
2019-03-31T08:17:34.417Z,2.80
2019-03-31T08:20:01.493Z,2.47
2019-03-31T08:22:27.487Z,2.80
2019-03-31T08:24:53.608Z,2.63
2019-03-31T08:27:19.868Z,3.00
2019-03-31T08:29:51.841Z,2.17
2019-03-31T08:32:14.579Z,4.07
2019-03-31T08:34:40.577Z,2.70
2019-03-31T08:37:08.269Z,3.00
2019-03-31T08:39:34.640Z,2.70
2019-03-31T08:42:00.739Z,2.60
2019-03-31T08:44:26.867Z,2.40
2019-03-31T08:46:52.897Z,2.70
2019-03-31T08:49:18.918Z,3.33
2019-03-31T08:51:44.932Z,2.73
2019-03-31T08:54:10.991Z,3.20
2019-03-31T08:56:37.093Z,2.40
2019-03-31T08:59:03.601Z,2.90
2019-03-31T09:01:29.609Z,2.40
2019-03-31T09:03:55.839Z,3.23
2019-03-31T09:06:21.850Z,2.40
2019-03-31T09:08:47.832Z,3.70
2019-03-31T09:11:13.874Z,2.60
2019-03-31T09:13:40.221Z,2.80
2019-03-31T09:16:06.261Z,2.90
2019-03-31T09:18:32.781Z,2.37
2019-03-31T09:20:58.855Z,2.20
2019-03-31T09:23:24.879Z,3.17
2019-03-31T09:25:50.852Z,2.20
2019-03-31T09:28:16.913Z,2.73
2019-03-31T09:30:42.896Z,2.00
2019-03-31T09:33:09.045Z,3.07
2019-03-31T09:35:35.057Z,2.70
2019-03-31T09:38:01.442Z,2.30
2019-03-31T09:40:27.820Z,3.13
2019-03-31T09:42:53.941Z,2.00
2019-03-31T09:45:20.164Z,2.30
2019-03-31T09:47:46.185Z,2.67
2019-03-31T09:50:16.833Z,2.60
2019-03-31T09:52:41.276Z,2.50
2019-03-31T09:55:08.132Z,4.83
2019-03-31T09:57:34.171Z,2.80
2019-03-31T10:00:00.403Z,3.00
2019-03-31T10:02:28.939Z,2.87
2019-03-31T10:04:54.968Z,3.20
2019-03-31T10:07:23.731Z,3.57
2019-03-31T10:09:49.138Z,2.53
2019-03-31T10:12:15.245Z,2.97
2019-03-31T10:14:41.228Z,1.83
2019-03-31T10:17:07.222Z,3.10
2019-03-31T10:19:33.442Z,2.80
2019-03-31T10:21:59.428Z,2.30
2019-03-31T10:24:25.419Z,2.60
2019-03-31T10:26:51.471Z,2.97
2019-03-31T10:29:17.456Z,1.80
2019-03-31T10:31:43.518Z,2.17
2019-03-31T10:34:09.499Z,2.97
2019-03-31T10:36:44.262Z,2.50
2019-03-31T10:39:05.333Z,2.93
2019-03-31T10:41:31.356Z,2.77
2019-03-31T10:43:57.334Z,2.60
2019-03-31T10:46:23.348Z,2.47
2019-03-31T10:48:49.498Z,2.63
2019-03-31T10:51:15.646Z,3.10
2019-03-31T10:53:41.741Z,4.17
2019-03-31T10:56:07.777Z,3.03
2019-03-31T10:58:33.893Z,2.37
2019-03-31T11:00:59.931Z,2.50
2019-03-31T11:03:25.973Z,2.97
2019-03-31T11:05:51.992Z,2.77
2019-03-31T11:08:18.024Z,3.20
2019-03-31T11:10:44.041Z,2.23
2019-03-31T11:13:10.033Z,2.30
2019-03-31T11:15:36.066Z,3.00
2019-03-31T11:18:02.059Z,2.80
2019-03-31T11:20:28.111Z,2.63
2019-03-31T11:22:58.629Z,2.43
2019-03-31T11:25:28.924Z,2.10
2019-03-31T11:27:52.791Z,1.93
2019-03-31T11:30:19.019Z,2.20
2019-03-31T11:32:45.032Z,2.67
2019-03-31T11:35:11.218Z,3.10
2019-03-31T11:37:37.361Z,2.60
2019-03-31T11:40:05.744Z,2.50
2019-03-31T11:42:31.718Z,2.17
2019-03-31T11:44:57.740Z,1.80
2019-03-31T11:47:23.744Z,2.43
2019-03-31T11:49:49.888Z,2.33
2019-03-31T11:52:16.043Z,2.83
2019-03-31T11:54:42.108Z,2.47
2019-03-31T11:57:08.536Z,2.40
2019-03-31T11:59:34.512Z,2.63
2019-03-31T12:02:00.732Z,5.10
2019-03-31T12:04:26.738Z,2.57
2019-03-31T12:06:52.966Z,3.20
2019-03-31T12:09:18.969Z,2.07
2019-03-31T12:11:45.817Z,3.30
2019-03-31T12:14:12.043Z,2.10
2019-03-31T12:16:38.056Z,2.17
2019-03-31T12:19:04.126Z,2.37
2019-03-31T12:21:30.168Z,2.30
2019-03-31T12:23:56.240Z,2.07
2019-03-31T12:26:22.258Z,2.40
2019-03-31T12:28:48.307Z,2.30
2019-03-31T12:31:14.988Z,2.00
2019-03-31T12:33:41.121Z,2.63
2019-03-31T12:36:07.092Z,2.73
2019-03-31T12:38:33.328Z,1.90
2019-03-31T12:40:59.372Z,2.10
2019-03-31T12:43:25.363Z,2.60
2019-03-31T12:45:51.380Z,2.10
2019-03-31T12:48:17.382Z,1.80
2019-03-31T12:50:43.377Z,1.80
2019-03-31T12:53:09.442Z,2.17
2019-03-31T12:55:35.420Z,2.10
2019-03-31T12:58:01.447Z,2.10
2019-03-31T13:00:27.553Z,2.93
2019-03-31T13:02:53.623Z,3.27
2019-03-31T13:05:19.610Z,2.00
2019-03-31T13:07:56.294Z,1.93
2019-03-31T13:10:13.957Z,1.97
2019-03-31T13:12:40.047Z,1.90
2019-03-31T13:15:06.581Z,2.10
2019-03-31T13:17:32.608Z,1.90
2019-03-31T13:19:58.597Z,2.03
2019-03-31T13:22:24.649Z,1.97
2019-03-31T13:24:50.632Z,2.30
2019-03-31T13:27:16.703Z,2.47
2019-03-31T13:29:42.733Z,2.47
2019-03-31T13:32:08.705Z,3.27
2019-03-31T13:34:34.928Z,1.90
2019-03-31T13:37:00.913Z,2.47
2019-03-31T13:39:27.008Z,1.80
2019-03-31T13:41:53.231Z,1.93
2019-03-31T13:44:19.211Z,2.27
2019-03-31T13:46:45.195Z,2.20
2019-03-31T13:49:11.204Z,1.60
2019-03-31T13:51:37.191Z,2.17
2019-03-31T13:54:03.250Z,2.43
2019-03-31T13:56:29.696Z,2.20
2019-03-31T13:58:56.105Z,1.83
2019-03-31T14:01:22.213Z,2.60
2019-03-31T14:03:48.297Z,2.30
2019-03-31T14:06:14.551Z,2.70
2019-03-31T14:08:40.565Z,2.00
2019-03-31T14:11:06.604Z,2.10
2019-03-31T14:13:32.656Z,2.60
2019-03-31T14:15:58.684Z,2.83
2019-03-31T14:18:24.752Z,1.97
2019-03-31T14:20:50.732Z,2.80
2019-03-31T14:23:16.711Z,1.77
2019-03-31T14:25:42.860Z,1.80
2019-03-31T14:28:08.880Z,2.07
2019-03-31T14:30:35.010Z,1.77
2019-03-31T14:33:01.105Z,2.23
2019-03-31T14:35:27.172Z,2.03
2019-03-31T14:37:53.283Z,1.73
2019-03-31T14:40:19.297Z,2.40
2019-03-31T14:42:45.315Z,1.83
2019-03-31T14:45:15.158Z,1.90
2019-03-31T14:47:41.169Z,1.83
2019-03-31T14:50:10.964Z,2.10
2019-03-31T14:52:36.992Z,2.10
2019-03-31T14:55:04.181Z,1.90
2019-03-31T14:57:30.172Z,2.43
2019-03-31T14:59:56.185Z,2.40
2019-03-31T15:02:24.257Z,2.10
2019-03-31T15:04:50.397Z,1.70
2019-03-31T15:07:16.516Z,1.90
2019-03-31T15:09:42.511Z,1.87
2019-03-31T15:12:08.544Z,2.80
2019-03-31T15:14:34.705Z,1.60
2019-03-31T15:17:00.753Z,1.90
2019-03-31T15:19:26.748Z,2.13
2019-03-31T15:21:52.821Z,2.00
2019-03-31T15:24:18.909Z,2.27
2019-03-31T15:26:45.026Z,2.23
2019-03-31T15:29:11.025Z,2.00
2019-03-31T15:31:37.053Z,1.77
2019-03-31T15:34:03.193Z,1.90
2019-03-31T15:36:29.409Z,2.00
2019-03-31T15:39:08.109Z,2.40
2019-03-31T15:41:23.382Z,1.80
2019-03-31T15:43:49.404Z,1.60
2019-03-31T15:46:15.692Z,2.13
2019-03-31T15:48:41.794Z,1.93
2019-03-31T15:51:08.113Z,1.60
2019-03-31T15:53:34.217Z,2.37
2019-03-31T15:56:00.224Z,2.27
2019-03-31T15:58:26.307Z,3.23
2019-03-31T16:00:52.304Z,1.60
2019-03-31T16:03:18.284Z,1.53
2019-03-31T16:05:44.335Z,2.20
2019-03-31T16:08:10.381Z,1.83
2019-03-31T16:10:36.637Z,2.43
2019-03-31T16:13:02.921Z,1.53
2019-03-31T16:15:28.901Z,1.70
2019-03-31T16:17:54.948Z,2.00
2019-03-31T16:20:21.053Z,1.90
2019-03-31T16:22:47.234Z,1.90
2019-03-31T16:25:17.749Z,2.03
2019-03-31T16:27:43.746Z,2.13
2019-03-31T16:30:09.968Z,1.80
2019-03-31T16:32:36.042Z,1.63
2019-03-31T16:35:03.683Z,1.70
2019-03-31T16:37:29.725Z,1.60
2019-03-31T16:39:55.719Z,1.40
2019-03-31T16:42:21.693Z,1.93
2019-03-31T16:44:57.984Z,2.23
2019-03-31T16:47:15.720Z,2.23
2019-03-31T16:49:42.079Z,2.40
2019-03-31T16:52:08.152Z,1.60
2019-03-31T16:54:34.136Z,1.90
2019-03-31T16:57:00.144Z,1.40
2019-03-31T16:59:26.204Z,1.40
2019-03-31T17:01:52.518Z,2.00
2019-03-31T17:04:18.538Z,2.13
2019-03-31T17:06:44.642Z,1.80
2019-03-31T17:09:10.620Z,1.83
2019-03-31T17:11:36.668Z,1.70
2019-03-31T17:14:02.851Z,1.43
2019-03-31T17:16:28.855Z,1.47
2019-03-31T17:18:54.833Z,1.87
2019-03-31T17:21:20.824Z,2.10
2019-03-31T17:23:47.054Z,1.60
2019-03-31T17:26:13.048Z,1.60
2019-03-31T17:28:39.031Z,1.53
2019-03-31T17:31:05.038Z,1.93
2019-03-31T17:33:31.076Z,1.60
2019-03-31T17:35:57.070Z,1.83
2019-03-31T17:38:23.086Z,1.50
2019-03-31T17:40:49.076Z,1.43
2019-03-31T17:43:15.069Z,1.37
2019-03-31T17:45:41.152Z,1.90
2019-03-31T17:48:07.621Z,1.90
2019-03-31T17:50:33.772Z,1.73
2019-03-31T17:52:59.771Z,1.80
2019-03-31T17:55:25.812Z,1.40
2019-03-31T17:57:51.816Z,1.90
2019-03-31T18:00:17.943Z,2.10
2019-03-31T18:02:43.937Z,2.60
2019-03-31T18:05:10.252Z,1.63
2019-03-31T18:07:36.563Z,1.90
2019-03-31T18:10:04.650Z,2.37
2019-03-31T18:12:30.744Z,2.57
2019-03-31T18:14:56.812Z,2.03
2019-03-31T18:17:22.880Z,2.43
2019-03-31T18:19:48.901Z,1.70
2019-03-31T18:22:16.766Z,2.13
2019-03-31T18:24:42.830Z,1.93
2019-03-31T18:27:08.840Z,2.17
2019-03-31T18:29:34.997Z,2.37
2019-03-31T18:32:00.978Z,2.17
2019-03-31T18:34:27.362Z,1.97
2019-03-31T18:36:53.388Z,2.33
2019-03-31T18:39:19.413Z,2.17
2019-03-31T18:41:45.532Z,2.40
2019-03-31T18:44:11.541Z,2.43
2019-03-31T18:46:37.651Z,1.93
2019-03-31T18:49:03.901Z,2.23
2019-03-31T18:51:29.930Z,2.70
2019-03-31T18:54:00.821Z,3.90
2019-03-31T18:56:40.782Z,2.80
2019-03-31T18:59:08.738Z,5.27
2019-03-31T19:01:36.713Z,4.40
2019-03-31T19:04:07.263Z,3.40
2019-03-31T19:06:43.934Z,2.83
2019-03-31T19:09:17.406Z,2.77
2019-03-31T19:11:47.872Z,2.50
2019-03-31T19:14:15.985Z,2.17
2019-03-31T19:16:44.100Z,3.50
2019-03-31T19:19:28.672Z,3.33
2019-03-31T19:22:05.403Z,3.03
2019-03-31T19:24:35.792Z,3.37
2019-03-31T19:27:20.253Z,3.80
2019-03-31T19:29:48.183Z,3.23
2019-03-31T19:32:32.330Z,2.50
2019-03-31T19:35:12.184Z,2.63
2019-03-31T19:37:58.059Z,3.20
2019-03-31T19:40:42.133Z,2.63
2019-03-31T19:43:15.916Z,3.30
2019-03-31T19:45:44.170Z,2.73
2019-03-31T19:48:14.865Z,2.50
2019-03-31T19:50:54.749Z,3.90
2019-03-31T19:53:28.493Z,3.27
2019-03-31T19:56:11.591Z,2.73
2019-03-31T19:58:54.690Z,2.40
2019-03-31T20:01:23.134Z,2.40
2019-03-31T20:04:02.961Z,3.80
2019-03-31T20:06:34.430Z,4.60
2019-03-31T20:09:02.618Z,3.77
2019-03-31T20:11:30.585Z,5.10
2019-03-31T20:14:04.468Z,4.50
2019-03-31T20:16:48.735Z,3.83
2019-03-31T20:19:16.771Z,3.20
2019-03-31T20:22:00.968Z,43.20
2019-03-31T20:24:40.806Z,43.00
2019-03-31T20:27:08.980Z,38.00
2019-03-31T20:29:36.940Z,61.37
2019-03-31T20:32:14.090Z,44.33
2019-03-31T20:34:42.025Z,30.77
2019-03-31T20:37:21.906Z,41.23
2019-03-31T20:39:56.431Z,35.37
2019-03-31T20:42:22.932Z,24.23
2019-03-31T20:44:48.957Z,26.80
2019-03-31T20:47:14.981Z,16.20
2019-03-31T20:49:41.101Z,17.90
2019-03-31T20:52:07.189Z,15.13
2019-03-31T20:54:33.328Z,10.63
2019-03-31T20:56:59.357Z,6.40
2019-03-31T20:59:25.395Z,8.63
2019-03-31T21:01:51.561Z,7.20
2019-03-31T21:04:17.563Z,4.30
2019-03-31T21:06:43.656Z,4.00
2019-03-31T21:09:09.731Z,3.93
2019-03-31T21:11:35.775Z,3.10
2019-03-31T21:14:01.898Z,4.17
2019-03-31T21:16:27.919Z,5.00
2019-03-31T21:18:54.045Z,5.40
2019-03-31T21:21:20.092Z,4.30
2019-03-31T21:23:46.094Z,3.70
2019-03-31T21:26:12.130Z,3.80
2019-03-31T21:28:38.106Z,4.07
2019-03-31T21:31:04.318Z,3.60
2019-03-31T21:33:30.433Z,3.67
2019-03-31T21:35:56.471Z,3.57
2019-03-31T21:38:22.577Z,3.47
2019-03-31T21:40:48.568Z,4.90
2019-03-31T21:43:14.591Z,4.83
2019-03-31T21:45:40.634Z,4.37
2019-03-31T21:48:06.697Z,4.77
2019-03-31T21:50:32.808Z,4.80
2019-03-31T21:52:58.918Z,5.47
2019-03-31T21:55:25.421Z,4.43
2019-03-31T21:57:51.453Z,5.00
2019-03-31T22:00:20.738Z,4.10
2019-03-31T22:02:46.798Z,5.60
2019-03-31T22:05:13.158Z,4.33
2019-03-31T22:07:39.200Z,5.07
2019-03-31T22:10:05.477Z,5.00
2019-03-31T22:12:31.505Z,5.70
2019-03-31T22:14:57.532Z,5.57
2019-03-31T22:17:23.551Z,5.53
2019-03-31T22:19:49.703Z,5.43
2019-03-31T22:22:15.717Z,4.87
2019-03-31T22:24:41.840Z,4.90
2019-03-31T22:27:07.835Z,5.00
2019-03-31T22:29:34.019Z,4.20
2019-03-31T22:32:00.072Z,3.97
2019-03-31T22:34:26.085Z,4.80
2019-03-31T22:36:52.116Z,4.80
2019-03-31T22:39:18.101Z,5.73
2019-03-31T22:41:44.140Z,5.53
2019-03-31T22:44:10.399Z,4.97
2019-03-31T22:46:36.732Z,6.43
2019-03-31T22:49:03.057Z,5.80
2019-03-31T22:51:29.068Z,5.80
2019-03-31T22:53:55.156Z,5.90
2019-03-31T22:56:21.282Z,7.10
2019-03-31T22:58:47.486Z,31.27
2019-03-31T23:01:13.638Z,34.10
2019-03-31T23:03:39.902Z,62.37
2019-03-31T23:06:05.896Z,11.90
2019-03-31T23:08:31.970Z,4.57
2019-03-31T23:10:58.118Z,4.07
2019-03-31T23:13:24.208Z,4.73
2019-03-31T23:15:50.348Z,4.43
2019-03-31T23:18:16.347Z,4.93
2019-03-31T23:20:42.774Z,4.73
2019-03-31T23:23:08.789Z,4.67
2019-03-31T23:25:34.826Z,4.20
2019-03-31T23:28:00.857Z,4.40
2019-03-31T23:30:26.861Z,4.20
2019-03-31T23:32:52.856Z,4.80
2019-03-31T23:35:18.883Z,4.20
2019-03-31T23:37:44.983Z,4.10
2019-03-31T23:40:10.972Z,4.57
2019-03-31T23:42:37.063Z,5.67
2019-03-31T23:45:04.525Z,4.83
2019-03-31T23:47:30.545Z,4.00
2019-03-31T23:49:56.573Z,6.47
2019-03-31T23:52:22.601Z,4.60
2019-03-31T23:54:48.596Z,5.17
2019-03-31T23:57:14.590Z,5.60
2019-03-31T23:59:40.616Z,5.20
